Time;durP1;ratioP1;P1;durP2;ratioP2;P2;SDS_P1;SDS_P2;PMS_P1;PMS_P2;Temp;Humidity;BMP_temperature;BMP_pressure;BME280_temperature;BME280_humidity;BME280_pressure;Samples;Min_cycle;Max_cycle;Signal;HPM_P1;HPM_P2
2021/05/14 00:01:25;;;;;;;2.60;0.90;;;13.20;73.00;;;;;;5092681;28;20032;-76
2021/05/14 00:03:52;;;;;;;6.50;1.10;;;13.20;73.10;;;;;;5074755;28;20024;-76
2021/05/14 00:06:18;;;;;;;1.57;1.00;;;13.10;73.20;;;;;;5092412;28;20051;-75
2021/05/14 00:08:43;;;;;;;1.77;1.30;;;13.10;73.30;;;;;;5066525;28;20063;-77
2021/05/14 00:11:09;;;;;;;4.60;1.73;;;13.10;73.40;;;;;;5075059;28;20023;-76
2021/05/14 00:13:35;;;;;;;3.43;1.77;;;13.10;73.40;;;;;;5070153;28;20424;-77
2021/05/14 00:16:00;;;;;;;2.90;1.27;;;13.10;73.30;;;;;;5089868;28;20016;-76
2021/05/14 00:18:26;;;;;;;3.73;1.67;;;13.20;73.30;;;;;;5093148;28;20032;-76
2021/05/14 00:20:52;;;;;;;2.90;2.07;;;13.10;73.70;;;;;;5068114;28;20019;-76
2021/05/14 00:23:18;;;;;;;2.47;1.67;;;13.20;73.00;;;;;;5070479;28;20309;-77
2021/05/14 00:25:44;;;;;;;2.13;1.43;;;13.20;73.00;;;;;;5069408;28;20067;-76
2021/05/14 00:28:09;;;;;;;3.73;1.53;;;13.10;72.90;;;;;;5070587;28;20031;-76
2021/05/14 00:30:35;;;;;;;5.60;1.60;;;13.10;72.90;;;;;;5092962;28;20484;-76
2021/05/14 00:33:01;;;;;;;4.67;1.73;;;13.10;73.00;;;;;;5069653;28;20024;-76
2021/05/14 00:35:27;;;;;;;4.03;2.13;;;13.10;72.90;;;;;;5078439;28;20055;-76
2021/05/14 00:37:52;;;;;;;3.40;2.00;;;13.10;72.90;;;;;;5070906;28;20477;-76
2021/05/14 00:40:18;;;;;;;5.47;2.40;;;13.10;73.00;;;;;;5089851;28;20034;-76
2021/05/14 00:42:44;;;;;;;5.70;1.70;;;13.10;73.10;;;;;;5092652;28;20032;-76
2021/05/14 00:45:11;;;;;;;3.60;1.70;;;13.00;73.20;;;;;;5093147;28;20028;-77
2021/05/14 00:47:36;;;;;;;1.73;1.53;;;13.00;73.10;;;;;;5087436;28;20025;-76
2021/05/14 00:50:04;;;;;;;1.43;1.10;;;13.00;73.00;;;;;;5091574;28;20082;-76
2021/05/14 00:52:30;;;;;;;1.90;1.30;;;13.00;73.10;;;;;;5068949;28;20020;-76
2021/05/14 00:54:56;;;;;;;1.67;1.17;;;13.00;73.30;;;;;;5067539;28;20025;-76
2021/05/14 00:57:22;;;;;;;0.97;0.87;;;12.90;73.30;;;;;;5072379;28;20024;-77
2021/05/14 00:59:50;;;;;;;4.70;1.30;;;12.90;73.30;;;;;;5073990;28;20039;-76
2021/05/14 01:02:17;;;;;;;3.83;1.37;;;12.90;73.40;;;;;;5074087;28;20031;-76
2021/05/14 01:04:43;;;;;;;1.77;1.53;;;12.90;73.50;;;;;;5071858;28;20037;-76
2021/05/14 01:07:13;;;;;;;2.93;2.13;;;12.90;73.30;;;;;;5091341;28;20024;-76
2021/05/14 01:09:41;;;;;;;1.90;1.60;;;13.00;73.30;;;;;;5091045;28;20098;-76
2021/05/14 01:12:10;;;;;;;2.27;1.53;;;13.00;73.20;;;;;;5061093;28;20404;-77
2021/05/14 01:14:35;;;;;;;2.70;1.50;;;12.90;73.60;;;;;;5066321;28;20024;-76
2021/05/14 01:17:02;;;;;;;2.87;1.10;;;12.90;73.00;;;;;;5071877;28;20429;-76
2021/05/14 01:19:28;;;;;;;3.00;1.50;;;12.90;73.00;;;;;;5090991;28;20098;-77
2021/05/14 01:21:53;;;;;;;3.40;1.57;;;12.90;72.90;;;;;;5071706;28;20119;-76
2021/05/14 01:24:19;;;;;;;3.47;2.00;;;12.90;72.90;;;;;;5071406;28;20024;-78
2021/05/14 01:26:45;;;;;;;2.97;2.63;;;12.90;72.90;;;;;;5085753;28;20127;-76
2021/05/14 01:29:12;;;;;;;3.60;2.87;;;12.80;72.90;;;;;;5063808;28;20051;-76
2021/05/14 01:31:39;;;;;;;2.77;2.57;;;12.90;72.90;;;;;;5052773;28;20059;-76
2021/05/14 01:34:07;;;;;;;3.80;3.33;;;12.80;73.00;;;;;;5053913;28;20027;-76
2021/05/14 01:36:38;;;;;;;4.63;3.90;;;12.90;73.40;;;;;;5053055;28;20012;-76
2021/05/14 01:39:13;;;;;;;4.23;3.53;;;12.90;73.30;;;;;;5053352;28;20388;-76
2021/05/14 01:41:39;;;;;;;4.57;3.50;;;12.90;73.40;;;;;;5052510;28;20063;-76
2021/05/14 01:44:06;;;;;;;3.10;2.63;;;12.80;73.20;;;;;;5053367;28;20071;-76
2021/05/14 01:46:32;;;;;;;3.63;2.60;;;12.80;73.30;;;;;;5051743;28;20119;-76
2021/05/14 01:48:58;;;;;;;5.83;3.17;;;12.80;73.40;;;;;;5050214;28;20079;-76
2021/05/14 01:51:24;;;;;;;4.87;3.30;;;12.80;73.30;;;;;;5058807;28;20119;-76
2021/05/14 01:53:51;;;;;;;5.17;3.37;;;12.90;73.20;;;;;;5070952;28;20095;-75
2021/05/14 01:56:18;;;;;;;3.73;3.23;;;12.90;73.30;;;;;;5071244;28;20105;-77
2021/05/14 01:58:49;;;;;;;7.20;3.43;;;12.90;73.30;;;;;;5053156;28;20025;-77
2021/05/14 02:01:15;;;;;;;2.33;2.10;;;12.90;73.20;;;;;;5071920;28;20029;-76
2021/05/14 02:03:40;;;;;;;1.77;1.53;;;12.80;73.00;;;;;;5057896;28;20145;-76
2021/05/14 02:06:07;;;;;;;2.30;1.07;;;12.80;73.10;;;;;;5044404;28;20033;-76
2021/05/14 02:08:33;;;;;;;3.87;1.00;;;12.80;72.70;;;;;;5050219;28;20063;-76
2021/05/14 02:10:59;;;;;;;3.10;1.10;;;12.80;72.50;;;;;;5056458;28;20079;-76
2021/05/14 02:13:26;;;;;;;3.40;2.30;;;12.70;72.60;;;;;;5056345;28;20017;-76
2021/05/14 02:15:52;;;;;;;3.47;2.67;;;12.70;73.40;;;;;;5053871;28;20094;-76
2021/05/14 02:18:17;;;;;;;6.33;2.90;;;12.70;73.10;;;;;;5053914;28;20029;-76
2021/05/14 02:20:43;;;;;;;6.70;4.17;;;12.70;73.30;;;;;;5057429;28;20028;-76
2021/05/14 02:23:09;;;;;;;3.40;1.10;;;12.70;73.30;;;;;;5072352;28;20045;-76
2021/05/14 02:25:35;;;;;;;2.40;1.00;;;12.60;73.10;;;;;;5055458;28;20485;-83
2021/05/14 02:28:02;;;;;;;1.07;0.87;;;12.60;72.90;;;;;;5050533;28;20039;-82
2021/05/14 02:30:28;;;;;;;8.73;1.57;;;12.60;72.80;;;;;;5075900;28;20089;-82
2021/05/14 02:32:54;;;;;;;1.93;1.00;;;12.50;72.70;;;;;;5069159;28;20420;-83
2021/05/14 02:35:19;;;;;;;1.60;1.07;;;12.50;72.80;;;;;;5094235;28;20020;-83
2021/05/14 02:37:46;;;;;;;3.23;0.93;;;12.50;72.50;;;;;;5091224;28;20469;-84
2021/05/14 02:40:12;;;;;;;1.47;1.20;;;12.50;72.60;;;;;;5095373;28;20114;-83
2021/05/14 02:42:39;;;;;;;1.67;1.10;;;12.40;72.70;;;;;;5068745;28;20032;-83
2021/05/14 02:45:06;;;;;;;1.47;1.00;;;12.40;72.70;;;;;;5076049;28;20127;-83
2021/05/14 02:47:32;;;;;;;2.53;1.67;;;12.40;72.50;;;;;;5075954;28;20032;-83
2021/05/14 02:49:57;;;;;;;5.00;2.20;;;12.40;72.50;;;;;;5075679;28;20085;-83
2021/05/14 02:52:23;;;;;;;0.93;0.83;;;12.30;72.70;;;;;;5095072;28;20099;-83
2021/05/14 02:54:49;;;;;;;2.10;0.73;;;12.30;73.20;;;;;;5071237;28;20464;-83
2021/05/14 02:57:15;;;;;;;1.83;0.67;;;12.30;72.50;;;;;;5094891;28;20422;-83
2021/05/14 02:59:41;;;;;;;3.70;2.30;;;12.30;72.70;;;;;;5094824;28;20039;-83
2021/05/14 03:02:07;;;;;;;13.60;8.77;;;12.20;72.60;;;;;;5068488;28;20035;-83
2021/05/14 03:04:33;;;;;;;4.47;2.67;;;12.20;72.70;;;;;;5094386;28;20028;-83
2021/05/14 03:07:01;;;;;;;1.33;1.07;;;12.20;72.50;;;;;;5094345;28;20057;-83
2021/05/14 03:09:26;;;;;;;3.60;1.40;;;12.20;72.60;;;;;;5073733;28;20032;-82
2021/05/14 03:11:52;;;;;;;3.20;1.80;;;12.10;73.50;;;;;;5074438;28;20081;-82
2021/05/14 03:14:18;;;;;;;22.73;12.47;;;12.20;73.10;;;;;;5088914;28;20028;-84
2021/05/14 03:16:43;;;;;;;6.30;3.70;;;12.20;73.20;;;;;;5092231;28;20027;-83
2021/05/14 03:19:09;;;;;;;3.40;2.70;;;12.20;73.00;;;;;;5070622;28;20032;-83
2021/05/14 03:21:35;;;;;;;2.53;2.27;;;12.20;73.30;;;;;;5093938;28;20024;-83
2021/05/14 03:24:01;;;;;;;4.20;2.50;;;12.20;73.50;;;;;;5093241;28;20028;-83
2021/05/14 03:26:27;;;;;;;3.33;2.83;;;12.20;73.50;;;;;;5064473;28;20028;-83
2021/05/14 03:28:53;;;;;;;5.03;2.07;;;12.20;73.70;;;;;;5092276;28;20083;-82
2021/05/14 03:31:19;;;;;;;4.80;1.87;;;12.30;73.50;;;;;;5076575;28;20059;-83
2021/05/14 03:33:46;;;;;;;2.27;1.70;;;12.30;73.50;;;;;;5071120;28;20118;-82
2021/05/14 03:36:13;;;;;;;2.53;1.43;;;12.40;73.40;;;;;;5071752;28;20055;-83
2021/05/14 03:38:39;;;;;;;3.17;1.80;;;12.40;73.10;;;;;;5084406;28;20599;-82
2021/05/14 03:41:31;;;;;;;3.03;1.67;;;12.30;73.00;;;;;;5073497;28;20077;-83
2021/05/14 03:43:58;;;;;;;2.77;1.70;;;12.30;73.10;;;;;;5070931;28;20020;-83
2021/05/14 03:46:28;;;;;;;2.37;1.70;;;12.40;73.00;;;;;;5091585;28;20289;-82
2021/05/14 03:48:54;;;;;;;3.97;2.20;;;12.40;72.90;;;;;;5077926;28;20032;-82
2021/05/14 03:51:19;;;;;;;3.30;2.30;;;12.40;72.90;;;;;;5095512;28;20054;-83
2021/05/14 03:53:45;;;;;;;4.63;2.67;;;12.40;73.10;;;;;;5092920;28;20160;-82
2021/05/14 03:56:11;;;;;;;5.30;2.10;;;12.30;73.40;;;;;;5075267;28;20051;-83
2021/05/14 03:58:37;;;;;;;9.27;2.40;;;12.30;73.50;;;;;;5072383;28;20476;-84
2021/05/14 04:01:03;;;;;;;1.33;1.10;;;12.30;73.60;;;;;;5075512;28;20032;-84
2021/05/14 04:03:29;;;;;;;2.50;1.23;;;12.20;73.40;;;;;;5074580;28;20024;-83
2021/05/14 04:05:54;;;;;;;2.00;1.37;;;12.20;73.30;;;;;;5089736;28;20031;-81
2021/05/14 04:08:20;;;;;;;1.50;1.20;;;12.10;73.10;;;;;;5074943;28;20503;-84
2021/05/14 04:11:03;;;;;;;1.30;1.00;;;12.00;73.10;;;;;;5070663;28;20403;-83
2021/05/14 04:16:14;;;;;;;3.23;1.80;;;12.00;72.80;;;;;;5090295;28;20699;-83
2021/05/14 04:18:39;;;;;;;3.13;2.50;;;12.00;72.90;;;;;;5070731;28;20028;-84
2021/05/14 04:21:06;;;;;;;3.93;2.50;;;12.10;73.20;;;;;;5093514;28;20474;-83
2021/05/14 04:23:33;;;;;;;7.00;2.57;;;12.10;73.30;;;;;;5091330;28;20024;-84
2021/05/14 04:25:58;;;;;;;3.13;2.43;;;12.10;73.60;;;;;;5085628;28;20515;-83
2021/05/14 04:28:24;;;;;;;5.67;3.10;;;12.20;73.70;;;;;;5067408;28;20025;-84
2021/05/14 04:30:50;;;;;;;2.17;1.30;;;12.20;73.60;;;;;;5067756;28;20036;-83
2021/05/14 04:33:16;;;;;;;3.30;1.40;;;12.20;73.50;;;;;;5070403;28;20036;-83
2021/05/14 04:35:41;;;;;;;2.80;1.80;;;12.20;73.40;;;;;;5068075;28;20032;-84
2021/05/14 04:38:07;;;;;;;3.50;1.83;;;12.20;73.30;;;;;;5066876;28;20025;-83
2021/05/14 04:40:33;;;;;;;2.40;1.80;;;12.20;73.30;;;;;;5069981;28;20032;-84
2021/05/14 04:43:03;;;;;;;4.10;2.27;;;12.30;73.40;;;;;;5070352;28;20025;-84
2021/05/14 04:45:29;;;;;;;5.77;3.20;;;12.30;73.40;;;;;;5071792;28;20060;-84
2021/05/14 04:47:55;;;;;;;3.33;2.50;;;12.30;73.30;;;;;;5070448;28;20051;-82
2021/05/14 04:50:21;;;;;;;4.77;2.60;;;12.40;73.20;;;;;;5070919;28;20119;-84
2021/05/14 04:52:47;;;;;;;4.33;2.73;;;12.40;73.10;;;;;;5072210;28;20016;-83
2021/05/14 04:55:15;;;;;;;4.70;3.27;;;12.40;73.10;;;;;;5071740;28;20095;-84
2021/05/14 04:57:41;;;;;;;4.70;3.27;;;12.40;73.20;;;;;;5071800;28;20085;-82
2021/05/14 05:00:07;;;;;;;6.07;2.37;;;12.40;73.10;;;;;;5067750;28;20028;-82
2021/05/14 05:02:35;;;;;;;3.37;3.07;;;12.50;73.10;;;;;;5063575;28;20388;-82
2021/05/14 05:05:01;;;;;;;5.80;2.83;;;12.50;73.10;;;;;;5071872;28;20025;-82
2021/05/14 05:07:30;;;;;;;3.83;2.97;;;12.60;72.90;;;;;;5071455;28;20389;-81
2021/05/14 05:09:55;;;;;;;4.47;3.43;;;12.60;72.80;;;;;;5069796;28;20027;-82
2021/05/14 05:12:21;;;;;;;5.67;3.90;;;12.70;72.70;;;;;;5067894;28;20036;-82
2021/05/14 05:14:47;;;;;;;6.13;3.20;;;12.70;72.70;;;;;;5071860;28;20020;-80
2021/05/14 05:17:14;;;;;;;5.93;3.07;;;12.70;72.60;;;;;;5069900;28;20116;-82
2021/05/14 05:19:39;;;;;;;8.07;3.60;;;12.70;72.40;;;;;;5067885;28;20079;-82
2021/05/14 05:22:05;;;;;;;7.73;2.93;;;12.80;72.40;;;;;;5063767;28;20028;-82
2021/05/14 05:24:31;;;;;;;6.07;3.27;;;12.80;72.30;;;;;;5068307;28;20024;-81
2021/05/14 05:26:57;;;;;;;6.63;3.00;;;12.80;72.10;;;;;;5069969;28;20039;-81
2021/05/14 05:29:23;;;;;;;3.23;2.37;;;12.80;72.40;;;;;;5083527;28;20520;-82
2021/05/14 05:31:48;;;;;;;5.43;2.73;;;12.80;72.20;;;;;;5069995;28;20032;-82
2021/05/14 05:34:14;;;;;;;4.97;2.50;;;12.80;72.20;;;;;;5067462;28;20028;-82
2021/05/14 05:36:40;;;;;;;5.93;2.40;;;12.90;72.40;;;;;;5068847;28;20021;-82
2021/05/14 05:39:06;;;;;;;5.80;2.67;;;12.90;72.30;;;;;;5059145;28;20600;-82
2021/05/14 05:41:31;;;;;;;5.70;3.57;;;13.00;72.10;;;;;;5060472;28;20034;-82
2021/05/14 05:43:57;;;;;;;5.63;3.30;;;13.00;71.90;;;;;;5066224;28;20062;-82
2021/05/14 05:46:23;;;;;;;3.83;2.23;;;13.00;71.80;;;;;;5071657;28;20024;-82
2021/05/14 05:48:49;;;;;;;3.17;2.50;;;13.00;71.70;;;;;;5066207;28;20037;-82
2021/05/14 05:51:16;;;;;;;5.57;2.77;;;13.10;71.60;;;;;;5060550;28;20174;-82
2021/05/14 05:53:42;;;;;;;6.23;3.13;;;13.10;71.40;;;;;;5069727;28;20027;-82
2021/05/14 05:56:09;;;;;;;3.07;2.27;;;13.10;71.30;;;;;;5071418;28;20036;-83
2021/05/14 05:58:35;;;;;;;6.67;2.63;;;13.20;71.20;;;;;;5057268;28;20021;-82
2021/05/14 06:01:01;;;;;;;3.20;2.33;;;13.20;71.00;;;;;;5068830;28;20166;-82
2021/05/14 06:03:27;;;;;;;3.17;2.07;;;13.20;70.90;;;;;;5065550;28;20021;-82
2021/05/14 06:05:53;;;;;;;5.10;2.13;;;13.20;70.90;;;;;;5055352;28;20021;-80
2021/05/14 06:08:31;;;;;;;4.07;2.10;;;13.20;70.90;;;;;;5066896;28;20029;-81
2021/05/14 06:10:56;;;;;;;4.57;1.90;;;13.20;70.60;;;;;;5070378;28;20021;-82
2021/05/14 06:13:22;;;;;;;5.37;1.73;;;13.20;70.70;;;;;;5067779;28;20475;-82
2021/05/14 06:15:50;;;;;;;2.40;1.77;;;13.30;70.40;;;;;;5070964;28;20043;-83
2021/05/14 06:18:17;;;;;;;2.37;1.77;;;13.30;70.40;;;;;;5070388;28;20071;-83
2021/05/14 06:20:45;;;;;;;4.50;2.00;;;13.40;70.30;;;;;;5068470;28;20040;-83
2021/05/14 06:23:11;;;;;;;2.23;1.87;;;13.40;70.20;;;;;;5071703;28;20112;-83
2021/05/14 06:25:40;;;;;;;3.20;2.33;;;13.40;70.10;;;;;;5071465;28;20028;-83
2021/05/14 06:28:07;;;;;;;4.63;1.80;;;13.40;69.80;;;;;;5071206;28;20475;-80
2021/05/14 06:30:33;;;;;;;4.90;2.17;;;13.50;69.70;;;;;;5071581;28;20040;-83
2021/05/14 06:32:59;;;;;;;5.67;2.33;;;13.50;69.60;;;;;;5057613;28;20397;-82
2021/05/14 06:35:25;;;;;;;2.30;2.10;;;13.50;69.50;;;;;;5070997;28;20024;-79
2021/05/14 06:37:52;;;;;;;2.73;2.00;;;13.50;69.50;;;;;;5047397;28;20049;-82
2021/05/14 06:40:18;;;;;;;5.67;2.33;;;13.60;69.40;;;;;;5048490;28;20024;-82
2021/05/14 06:42:44;;;;;;;2.20;1.80;;;13.60;69.40;;;;;;5051963;28;20099;-82
2021/05/14 06:45:10;;;;;;;2.93;2.00;;;13.70;69.20;;;;;;5051226;28;20381;-82
2021/05/14 06:47:36;;;;;;;2.20;1.90;;;13.70;69.10;;;;;;5071509;28;20074;-82
2021/05/14 06:50:05;;;;;;;3.80;1.57;;;13.80;69.00;;;;;;5061113;28;20548;-83
2021/05/14 06:52:32;;;;;;;3.20;1.40;;;13.80;68.60;;;;;;5074452;28;20024;-82
2021/05/14 06:54:57;;;;;;;3.37;1.60;;;13.80;68.10;;;;;;5053500;28;20033;-82
2021/05/14 06:57:23;;;;;;;3.87;1.77;;;13.70;68.00;;;;;;5048805;28;20027;-82
2021/05/14 06:59:49;;;;;;;2.27;1.73;;;13.70;67.90;;;;;;5074470;28;20389;-82
2021/05/14 07:02:15;;;;;;;2.73;1.60;;;13.80;67.60;;;;;;5053825;28;20747;-82
2021/05/14 07:04:40;;;;;;;7.97;2.30;;;13.80;67.40;;;;;;5072036;28;20052;-82
2021/05/14 07:07:06;;;;;;;3.63;2.17;;;13.80;67.20;;;;;;5051066;28;20068;-82
2021/05/14 07:09:32;;;;;;;3.70;2.73;;;13.90;67.00;;;;;;5056186;28;20143;-81
2021/05/14 07:11:58;;;;;;;3.03;2.10;;;13.80;66.90;;;;;;5054752;28;20016;-82
2021/05/14 07:14:24;;;;;;;2.50;2.03;;;13.80;66.60;;;;;;5050426;28;20488;-82
2021/05/14 07:16:50;;;;;;;3.83;2.17;;;13.80;66.50;;;;;;5077779;28;20027;-82
2021/05/14 07:19:16;;;;;;;8.40;2.17;;;13.80;66.30;;;;;;5053830;28;20036;-82
2021/05/14 07:21:43;;;;;;;3.33;2.00;;;13.70;66.30;;;;;;5073857;28;20032;-82
2021/05/14 07:24:09;;;;;;;4.50;2.37;;;13.80;66.60;;;;;;5032104;28;20584;-83
2021/05/14 07:26:38;;;;;;;4.63;1.70;;;13.80;66.20;;;;;;5055885;28;20927;-82
2021/05/14 07:29:06;;;;;;;3.90;1.83;;;13.80;66.20;;;;;;5082362;28;20404;-83
2021/05/14 07:31:34;;;;;;;3.97;1.83;;;13.90;66.00;;;;;;5091777;28;20021;-82
2021/05/14 07:33:59;;;;;;;5.00;2.03;;;14.00;65.80;;;;;;5056182;28;20040;-82
2021/05/14 07:36:26;;;;;;;5.83;1.90;;;14.00;65.30;;;;;;5090304;28;20028;-82
2021/05/14 07:38:53;;;;;;;3.40;2.13;;;14.10;65.10;;;;;;5084789;28;20541;-82
2021/05/14 07:41:19;;;;;;;3.07;1.80;;;14.20;65.20;;;;;;5091628;28;20115;-83
2021/05/14 07:43:44;;;;;;;3.43;2.10;;;14.20;64.90;;;;;;5075688;28;20091;-82
2021/05/14 07:46:10;;;;;;;2.87;1.80;;;14.30;65.00;;;;;;5071673;28;20346;-82
2021/05/14 07:48:36;;;;;;;3.27;1.93;;;14.30;65.00;;;;;;5071579;28;20035;-80
2021/05/14 07:51:03;;;;;;;4.80;1.80;;;14.50;64.50;;;;;;5083581;28;20024;-82
2021/05/14 07:53:28;;;;;;;2.33;1.53;;;14.50;64.80;;;;;;5085206;28;20031;-82
2021/05/14 07:55:54;;;;;;;4.13;1.50;;;14.60;64.10;;;;;;5062923;28;20373;-82
2021/05/14 07:58:20;;;;;;;2.63;1.67;;;14.60;63.80;;;;;;5071509;28;20028;-82
2021/05/14 08:00:49;;;;;;;3.43;1.67;;;14.60;63.50;;;;;;5071736;28;20032;-82
2021/05/14 08:03:15;;;;;;;2.07;1.47;;;14.60;63.20;;;;;;5090904;28;20028;-82
2021/05/14 08:05:41;;;;;;;7.57;2.00;;;14.50;63.10;;;;;;5083427;28;20085;-82
2021/05/14 08:08:09;;;;;;;2.80;1.67;;;14.60;63.20;;;;;;5087835;28;20024;-82
2021/05/14 08:10:35;;;;;;;7.17;1.80;;;14.70;63.00;;;;;;5075018;28;20067;-82
2021/05/14 08:13:01;;;;;;;2.77;1.57;;;14.70;62.30;;;;;;5072580;28;20024;-82
2021/05/14 08:15:28;;;;;;;3.77;1.60;;;14.70;62.10;;;;;;5090229;28;20392;-82
2021/05/14 08:17:54;;;;;;;4.40;1.23;;;14.70;61.90;;;;;;5069593;28;20024;-82
2021/05/14 08:20:20;;;;;;;2.57;1.33;;;14.70;61.20;;;;;;5078435;28;20039;-82
2021/05/14 08:22:46;;;;;;;2.90;1.30;;;14.60;61.00;;;;;;5085475;28;20097;-82
2021/05/14 08:25:13;;;;;;;2.30;1.00;;;14.70;60.80;;;;;;5070781;28;20032;-82
2021/05/14 08:27:39;;;;;;;3.00;1.50;;;14.80;60.50;;;;;;5073863;28;20126;-83
2021/05/14 08:30:07;;;;;;;3.17;1.87;;;14.90;60.70;;;;;;5091402;28;20557;-82
2021/05/14 08:32:33;;;;;;;4.00;1.67;;;15.10;60.40;;;;;;5074904;28;20020;-82
2021/05/14 08:34:59;;;;;;;2.67;1.70;;;15.30;60.20;;;;;;5093102;28;20031;-82
2021/05/14 08:37:24;;;;;;;3.38;1.92;;;15.30;59.70;;;;;;5069772;28;20027;-82
2021/05/14 08:39:50;;;;;;;5.47;1.67;;;15.30;59.50;;;;;;5089500;28;20020;-82
2021/05/14 08:42:16;;;;;;;4.00;1.75;;;15.40;59.70;;;;;;5069759;28;20568;-82
2021/05/14 08:44:43;;;;;;;2.72;1.83;;;15.50;59.30;;;;;;5085404;28;20122;-82
2021/05/14 08:47:11;;;;;;;2.88;1.70;;;15.60;59.00;;;;;;5068537;28;20062;-83
2021/05/14 08:49:38;;;;;;;3.58;1.58;;;15.70;58.60;;;;;;5092298;28;20090;-81
2021/05/14 08:52:05;;;;;;;2.67;1.45;;;15.80;58.00;;;;;;5093221;28;20023;-81
2021/05/14 08:54:31;;;;;;;5.55;1.60;;;15.90;57.60;;;;;;5076453;28;20042;-82
2021/05/14 08:56:57;;;;;;;2.60;1.55;;;16.00;57.00;;;;;;5070411;28;20114;-82
2021/05/14 08:59:22;;;;;;;5.50;1.83;;;16.20;57.30;;;;;;5073740;28;20028;-82
2021/05/14 09:01:51;;;;;;;2.97;1.40;;;16.50;57.60;;;;;;5082751;28;20121;-81
2021/05/14 09:04:19;;;;;;;5.30;1.60;;;16.80;57.10;;;;;;5074445;28;20123;-81
2021/05/14 09:06:46;;;;;;;4.45;1.42;;;16.80;56.90;;;;;;5072717;28;20039;-81
2021/05/14 09:09:13;;;;;;;6.80;1.40;;;16.80;56.90;;;;;;5090367;28;20060;-82
2021/05/14 09:11:40;;;;;;;2.60;1.13;;;16.90;56.40;;;;;;5073304;28;20062;-82
2021/05/14 09:14:27;;;;;;;4.38;1.35;;;16.90;56.10;;;;;;5089139;28;20039;-82
2021/05/14 09:16:53;;;;;;;3.40;1.15;;;16.90;55.80;;;;;;5073899;28;20028;-83
2021/05/14 09:19:30;;;;;;;2.53;0.82;;;16.90;55.70;;;;;;5074029;28;20043;-82
2021/05/14 09:22:13;;;;;;;6.43;1.58;;;16.90;55.10;;;;;;5084880;28;20028;-82
2021/05/14 09:24:40;;;;;;;;;;;17.00;54.80;;;;;;5071620;28;20034;-82
2021/05/14 09:27:16;;;;;;;1.73;0.80;;;17.10;55.20;;;;;;5072923;28;19957;-81
2021/05/14 09:29:43;;;;;;;2.83;0.75;;;17.10;54.50;;;;;;5040622;28;20119;-82
2021/05/14 09:32:33;;;;;;;1.55;0.82;;;17.20;54.20;;;;;;5069653;28;20393;-82
2021/05/14 09:35:01;;;;;;;4.68;1.48;;;17.40;53.70;;;;;;5061998;28;20044;-82
2021/05/14 09:37:28;;;;;;;2.95;1.55;;;17.60;53.80;;;;;;5047503;28;20094;-82
2021/05/14 09:40:15;;;;;;;1.80;0.90;;;17.70;53.50;;;;;;5049145;28;20636;-82
2021/05/14 09:42:41;;;;;;;2.35;1.23;;;18.00;53.00;;;;;;5046629;28;20017;-82
2021/05/14 09:45:16;;;;;;;1.50;0.90;;;18.20;52.70;;;;;;5040001;28;20032;-82
2021/05/14 09:47:43;;;;;;;2.33;1.10;;;18.20;52.20;;;;;;5047327;28;20029;-82
2021/05/14 09:50:27;;;;;;;2.03;0.80;;;18.20;51.90;;;;;;5048908;28;20048;-82
2021/05/14 09:53:13;;;;;;;1.75;1.00;;;18.30;51.30;;;;;;5047957;28;20022;-82
2021/05/14 09:55:51;;;;;;;6.32;1.08;;;18.30;51.10;;;;;;5047627;28;20367;-81
2021/05/14 09:58:23;;;;;;;5.30;1.10;;;18.40;51.40;;;;;;5049448;28;20048;-82
2021/05/14 10:00:49;;;;;;;2.65;1.27;;;18.60;51.70;;;;;;5034609;28;20033;-82
2021/05/14 10:03:16;;;;;;;2.97;1.42;;;18.70;51.50;;;;;;5037118;28;20049;-82
2021/05/14 10:05:44;;;;;;;1.02;0.80;;;18.70;51.80;;;;;;5038446;28;20491;-83
2021/05/14 10:08:12;;;;;;;1.77;0.88;;;18.60;50.80;;;;;;5037273;28;22924;-82
2021/05/14 10:10:39;;;;;;;1.33;0.60;;;18.60;50.70;;;;;;5041173;28;20033;-82
2021/05/14 10:13:08;;;;;;;1.38;0.70;;;18.50;49.60;;;;;;5035194;28;20021;-82
2021/05/14 10:15:34;;;;;;;1.48;0.80;;;18.40;49.60;;;;;;5051950;28;20029;-83
2021/05/14 10:18:03;;;;;;;1.05;0.85;;;18.50;49.80;;;;;;5050562;28;20032;-82
2021/05/14 10:20:31;;;;;;;1.63;0.70;;;18.50;49.80;;;;;;5039450;28;20025;-81
2021/05/14 10:23:01;;;;;;;3.90;0.98;;;18.60;50.20;;;;;;5038430;28;20106;-82
2021/05/14 10:25:43;;;;;;;0.98;0.73;;;18.60;49.20;;;;;;5040973;28;20128;-81
2021/05/14 10:28:11;;;;;;;2.53;0.90;;;18.50;48.60;;;;;;5035471;28;21477;-82
2021/05/14 10:31:05;;;;;;;5.03;0.98;;;18.60;49.10;;;;;;5036202;28;20414;-82
2021/05/14 10:33:47;;;;;;;6.05;1.45;;;18.60;48.50;;;;;;5039107;28;20045;-82
2021/05/14 10:36:24;;;;;;;2.88;0.80;;;18.50;48.00;;;;;;5041878;28;20068;-81
2021/05/14 10:39:19;;;;;;;2.63;1.05;;;18.60;48.00;;;;;;5046171;28;20029;-82
2021/05/14 10:41:48;;;;;;;1.15;0.60;;;18.60;47.60;;;;;;5033361;28;20032;-82
2021/05/14 10:44:14;;;;;;;1.63;0.70;;;18.50;48.20;;;;;;5028376;28;20052;-83
2021/05/14 10:46:40;;;;;;;0.93;0.60;;;18.50;48.20;;;;;;5024110;28;20108;-83
2021/05/14 10:49:07;;;;;;;2.25;0.50;;;18.50;47.80;;;;;;5019697;28;20125;-83
2021/05/14 10:51:49;;;;;;;1.13;0.52;;;18.60;47.70;;;;;;5018683;28;20041;-82
2021/05/14 10:54:39;;;;;;;0.77;0.60;;;18.50;47.10;;;;;;5033082;28;20053;-82
2021/05/14 10:57:25;;;;;;;1.65;1.13;;;18.50;47.40;;;;;;5031449;28;20052;-82
2021/05/14 10:59:51;;;;;;;1.10;0.60;;;18.50;47.40;;;;;;5021111;28;20052;-82
2021/05/14 11:02:30;;;;;;;5.03;0.75;;;18.50;47.30;;;;;;5028567;28;20026;-80
2021/05/14 11:04:58;;;;;;;0.70;0.40;;;18.50;47.20;;;;;;5031846;28;20064;-82
2021/05/14 11:07:30;;;;;;;1.85;0.73;;;18.40;47.10;;;;;;5021526;28;20038;-82
2021/05/14 11:10:35;;;;;;;1.08;0.60;;;18.50;47.00;;;;;;5021888;28;20095;-82
2021/05/14 11:13:34;;;;;;;1.27;0.68;;;18.50;47.00;;;;;;5028528;28;20069;-82
2021/05/14 11:16:39;;;;;;;0.70;0.47;;;18.50;46.50;;;;;;5027261;28;20493;-81
2021/05/14 11:19:29;;;;;;;3.25;0.52;;;18.50;46.40;;;;;;5045403;28;20029;-82
2021/05/14 11:22:27;;;;;;;5.97;1.08;;;18.50;46.50;;;;;;5025150;28;20526;-82
2021/05/14 11:24:54;;;;;;;0.65;0.50;;;18.40;45.90;;;;;;5027163;28;20112;-83
2021/05/14 11:27:21;;;;;;;2.35;0.60;;;18.50;46.40;;;;;;5019383;28;20030;-82
2021/05/14 11:29:49;;;;;;;1.92;0.40;;;18.50;46.40;;;;;;5030577;28;20049;-82
2021/05/14 11:32:17;;;;;;;2.05;0.75;;;18.50;46.40;;;;;;5027833;28;20052;-82
2021/05/14 11:35:12;;;;;;;2.05;0.70;;;18.60;46.40;;;;;;5029219;28;20052;-83
2021/05/14 11:37:52;;;;;;;4.10;0.60;;;18.60;45.30;;;;;;5030074;28;20116;-83
2021/05/14 11:40:20;;;;;;;1.00;0.70;;;18.60;45.90;;;;;;5028299;28;20056;-82
2021/05/14 11:42:49;;;;;;;2.08;0.60;;;18.70;46.40;;;;;;5027706;28;20030;-82
2021/05/14 11:45:21;;;;;;;0.95;0.50;;;18.70;46.00;;;;;;5023052;28;20415;-82
2021/05/14 11:47:50;;;;;;;1.63;0.50;;;18.80;46.10;;;;;;5025981;28;20052;-83
2021/05/14 11:50:24;;;;;;;1.85;0.50;;;18.90;46.40;;;;;;5024613;28;20064;-83
2021/05/14 11:52:50;;;;;;;1.20;0.45;;;18.90;46.50;;;;;;5026974;28;20023;-82
2021/05/14 11:55:17;;;;;;;1.58;0.65;;;19.00;45.90;;;;;;5028355;28;20029;-83
2021/05/14 11:57:51;;;;;;;0.80;0.60;;;18.90;45.70;;;;;;5031839;28;20110;-82
2021/05/14 12:00:30;;;;;;;1.35;0.50;;;19.00;45.70;;;;;;5028622;28;20520;-83
2021/05/14 12:02:58;;;;;;;3.60;0.65;;;19.10;45.90;;;;;;5022123;28;20549;-82
2021/05/14 12:05:25;;;;;;;2.15;0.70;;;19.20;46.00;;;;;;5021352;28;20030;-83
2021/05/14 12:08:08;;;;;;;3.05;0.80;;;19.20;45.80;;;;;;5028681;28;20532;-82
2021/05/14 12:10:43;;;;;;;2.00;0.45;;;19.30;45.50;;;;;;5022230;28;20038;-83
2021/05/14 12:13:11;;;;;;;2.75;0.82;;;19.30;45.60;;;;;;5014364;28;20029;-82
2021/05/14 12:15:38;;;;;;;0.82;0.50;;;19.40;45.50;;;;;;5028125;28;20470;-83
2021/05/14 12:18:04;;;;;;;0.60;0.38;;;19.30;45.40;;;;;;5025559;28;20021;-82
2021/05/14 12:20:37;;;;;;;0.80;0.40;;;19.30;45.20;;;;;;5016803;28;20030;-83
2021/05/14 12:23:06;;;;;;;1.70;0.57;;;19.30;44.80;;;;;;5019181;28;20029;-83
2021/05/14 12:25:46;;;;;;;1.40;0.60;;;19.30;45.00;;;;;;5028661;28;20022;-82
2021/05/14 12:28:36;;;;;;;0.90;0.50;;;19.20;44.40;;;;;;5030673;28;20104;-83
2021/05/14 12:31:05;;;;;;;1.33;0.50;;;19.20;44.70;;;;;;5027829;28;20041;-83
2021/05/14 12:33:31;;;;;;;5.25;0.60;;;19.10;44.80;;;;;;5032264;28;20484;-83
2021/05/14 12:36:07;;;;;;;4.05;0.50;;;19.10;45.50;;;;;;5021839;28;20076;-82
2021/05/14 12:38:48;;;;;;;1.98;0.55;;;19.10;44.90;;;;;;5025486;28;20056;-82
2021/05/14 12:41:23;;;;;;;3.53;1.20;;;19.10;44.70;;;;;;5020041;28;20113;-82
2021/05/14 12:43:50;;;;;;;2.10;0.88;;;19.10;44.50;;;;;;5031893;28;20061;-82
2021/05/14 12:46:16;;;;;;;5.97;1.88;;;19.10;44.40;;;;;;5025920;28;20497;-82
2021/05/14 12:48:42;;;;;;;10.40;0.90;;;19.10;44.30;;;;;;5028952;28;20029;-82
2021/05/14 12:51:07;;;;;;;4.22;1.00;;;19.00;43.80;;;;;;5030287;28;20029;-82
2021/05/14 12:53:33;;;;;;;4.93;1.13;;;19.00;44.20;;;;;;5031338;28;20112;-83
2021/05/14 12:55:59;;;;;;;2.70;0.98;;;19.00;44.40;;;;;;5030710;28;20482;-82
2021/05/14 12:58:25;;;;;;;3.42;0.63;;;19.10;44.80;;;;;;5030544;28;20422;-82